createdAt,value
2022-12-14T00:00:14.396Z,68.12
2022-12-14T00:01:14.366Z,67.91
2022-12-14T00:02:14.465Z,67.81
2022-12-14T00:03:14.472Z,67.91
2022-12-14T00:04:14.345Z,68.12
2022-12-14T00:05:14.306Z,67.71
2022-12-14T00:06:14.305Z,67.60
2022-12-14T00:07:14.315Z,67.29
2022-12-14T00:08:14.274Z,66.66
2022-12-14T00:09:14.260Z,66.83
2022-12-14T00:10:14.266Z,66.52
2022-12-14T00:11:14.236Z,66.42
2022-12-14T00:12:14.245Z,66.94
2022-12-14T00:13:14.205Z,66.73
2022-12-14T00:14:14.212Z,67.36
2022-12-14T00:15:14.185Z,67.57
2022-12-14T00:16:14.231Z,67.36
2022-12-14T00:17:14.174Z,67.25
2022-12-14T00:18:16.749Z,66.83
2022-12-14T00:19:15.134Z,66.10
2022-12-14T00:20:14.126Z,65.89
2022-12-14T00:21:14.108Z,66.00
2022-12-14T00:22:14.115Z,66.39
2022-12-14T00:23:14.099Z,66.70
2022-12-14T00:24:14.078Z,66.28
2022-12-14T00:25:14.054Z,66.17
2022-12-14T00:26:14.046Z,66.39
2022-12-14T00:27:14.046Z,66.28
2022-12-14T00:28:14.015Z,65.97
2022-12-14T00:29:14.009Z,66.49
2022-12-14T00:30:14.004Z,66.49
2022-12-14T00:31:14.000Z,66.17
2022-12-14T00:32:13.984Z,66.60
2022-12-14T00:33:13.953Z,66.80
2022-12-14T00:34:13.944Z,66.60
2022-12-14T00:35:13.933Z,66.49
2022-12-14T00:36:13.917Z,66.28
2022-12-14T00:37:13.923Z,65.76
2022-12-14T00:38:13.886Z,66.07
2022-12-14T00:39:13.877Z,66.39
2022-12-14T00:40:13.854Z,65.86
2022-12-14T00:41:13.856Z,65.44
2022-12-14T00:42:13.855Z,65.86
2022-12-14T00:43:13.825Z,65.55
2022-12-14T00:44:13.921Z,65.76
2022-12-14T00:45:13.815Z,65.65
2022-12-14T00:46:13.842Z,65.86
2022-12-14T00:47:13.798Z,66.07
2022-12-14T00:48:13.762Z,65.34
2022-12-14T00:49:13.743Z,65.55
2022-12-14T00:50:13.734Z,65.34
2022-12-14T00:51:13.724Z,65.55
2022-12-14T00:52:13.734Z,65.44
2022-12-14T00:53:13.696Z,65.10
2022-12-14T00:54:13.682Z,65.03
2022-12-14T00:55:13.677Z,64.78
2022-12-14T00:56:13.660Z,64.68
2022-12-14T00:57:13.663Z,64.78
2022-12-14T00:58:13.623Z,64.68
2022-12-14T00:59:13.624Z,64.89
2022-12-14T01:00:13.604Z,64.68
2022-12-14T01:01:13.837Z,64.68
2022-12-14T01:02:13.663Z,64.58
2022-12-14T01:03:13.612Z,64.68
2022-12-14T01:04:13.609Z,64.68
2022-12-14T01:05:13.554Z,64.58
2022-12-14T01:06:13.528Z,64.05
2022-12-14T01:07:13.532Z,63.84
2022-12-14T01:08:13.494Z,64.58
2022-12-14T01:09:13.484Z,64.68
2022-12-14T01:10:13.476Z,64.58
2022-12-14T01:11:13.462Z,64.26
2022-12-14T01:12:13.464Z,63.71
2022-12-14T01:13:13.445Z,63.74
2022-12-14T01:14:13.463Z,64.05
2022-12-14T01:15:13.406Z,63.64
2022-12-14T01:16:13.473Z,64.05
2022-12-14T01:17:13.401Z,64.26
2022-12-14T01:18:13.364Z,65.10
2022-12-14T01:19:13.353Z,64.68
2022-12-14T01:20:13.338Z,64.47
2022-12-14T01:21:13.324Z,64.37
2022-12-14T01:22:13.324Z,64.26
2022-12-14T01:23:13.305Z,64.37
2022-12-14T01:24:13.283Z,64.37
2022-12-14T01:25:13.283Z,64.37
2022-12-14T01:26:13.265Z,64.05
2022-12-14T01:27:13.263Z,64.37
2022-12-14T01:28:13.234Z,64.05
2022-12-14T01:29:13.224Z,64.37
2022-12-14T01:30:13.205Z,64.68
2022-12-14T01:31:13.257Z,64.58
2022-12-14T01:32:13.198Z,64.37
2022-12-14T01:33:13.172Z,64.78
2022-12-14T01:34:13.155Z,64.89
2022-12-14T01:35:13.144Z,64.68
2022-12-14T01:36:13.124Z,64.78
2022-12-14T01:37:13.134Z,65.10
2022-12-14T01:38:13.104Z,65.34
2022-12-14T01:39:13.113Z,65.20
2022-12-14T01:40:13.072Z,64.92
2022-12-14T01:41:13.073Z,64.92
2022-12-14T01:42:13.065Z,64.81
2022-12-14T01:43:13.041Z,65.13
2022-12-14T01:44:13.026Z,64.50
2022-12-14T01:45:13.014Z,64.50
2022-12-14T01:46:13.055Z,64.61
2022-12-14T01:47:13.152Z,64.92
2022-12-14T01:48:12.976Z,64.92
2022-12-14T01:49:12.964Z,64.81
2022-12-14T01:50:12.952Z,64.71
2022-12-14T01:51:12.952Z,65.13
2022-12-14T01:52:12.923Z,65.86
2022-12-14T01:53:12.915Z,65.34
2022-12-14T01:54:12.893Z,65.34
2022-12-14T01:55:12.887Z,65.13
2022-12-14T01:56:12.897Z,65.23
2022-12-14T01:57:12.866Z,65.34
2022-12-14T01:58:12.843Z,65.76
2022-12-14T01:59:12.853Z,65.13
2022-12-14T02:00:12.825Z,65.23
2022-12-14T02:01:12.877Z,65.23
2022-12-14T02:02:12.864Z,65.47
2022-12-14T02:03:12.850Z,65.44
2022-12-14T02:04:12.760Z,65.79
2022-12-14T02:05:12.773Z,65.68
2022-12-14T02:06:12.747Z,65.47
2022-12-14T02:07:12.737Z,65.37
2022-12-14T02:08:12.705Z,65.37
2022-12-14T02:09:12.691Z,65.89
2022-12-14T02:10:12.682Z,66.00
2022-12-14T02:11:12.689Z,66.52
2022-12-14T02:12:12.662Z,66.42
2022-12-14T02:13:12.651Z,66.20
2022-12-14T02:14:12.623Z,66.73
2022-12-14T02:15:12.623Z,66.63
2022-12-14T02:16:12.692Z,66.31
2022-12-14T02:17:12.609Z,66.42
2022-12-14T02:18:12.581Z,66.52
2022-12-14T02:19:12.578Z,66.83
2022-12-14T02:20:12.552Z,66.63
2022-12-14T02:21:12.557Z,66.52
2022-12-14T02:22:12.545Z,66.83
2022-12-14T02:23:12.511Z,66.94
2022-12-14T02:24:12.493Z,66.55
2022-12-14T02:25:12.508Z,66.31
2022-12-14T02:26:12.481Z,66.52
2022-12-14T02:27:12.471Z,66.97
2022-12-14T02:28:12.441Z,66.44
2022-12-14T02:29:12.432Z,66.13
2022-12-14T02:30:12.422Z,66.34
2022-12-14T02:31:12.451Z,66.76
2022-12-14T02:32:12.421Z,66.66
2022-12-14T02:33:12.393Z,66.55
2022-12-14T02:34:12.364Z,66.24
2022-12-14T02:35:12.364Z,66.44
2022-12-14T02:36:12.344Z,66.55
2022-12-14T02:37:12.356Z,66.55
2022-12-14T02:38:12.315Z,66.86
2022-12-14T02:39:12.316Z,66.86
2022-12-14T02:40:12.296Z,66.97
2022-12-14T02:41:12.286Z,67.05
2022-12-14T02:42:12.284Z,67.05
2022-12-14T02:43:12.258Z,67.25
2022-12-14T02:44:12.246Z,67.49
2022-12-14T02:45:12.233Z,67.49
2022-12-14T02:46:12.290Z,67.49
2022-12-14T02:47:12.282Z,67.05
2022-12-14T02:48:12.205Z,67.18
2022-12-14T02:49:12.181Z,66.63
2022-12-14T02:50:12.173Z,66.63
2022-12-14T02:51:12.153Z,66.63
2022-12-14T02:52:12.152Z,66.31
2022-12-14T02:53:12.132Z,66.10
2022-12-14T02:54:12.114Z,66.00
2022-12-14T02:55:12.110Z,66.00
2022-12-14T02:56:12.089Z,66.10
2022-12-14T02:57:12.092Z,66.10
2022-12-14T02:58:12.058Z,66.31
2022-12-14T02:59:12.067Z,66.42
2022-12-14T03:00:12.033Z,66.52
2022-12-14T03:01:12.123Z,66.83
2022-12-14T03:02:12.153Z,66.52
2022-12-14T03:03:12.031Z,66.20
2022-12-14T03:04:11.983Z,66.42
2022-12-14T03:05:11.975Z,67.15
2022-12-14T03:06:11.963Z,67.25
2022-12-14T03:07:11.954Z,67.05
2022-12-14T03:08:11.963Z,67.15
2022-12-14T03:09:11.921Z,67.36
2022-12-14T03:10:11.916Z,67.25
2022-12-14T03:11:11.892Z,67.05
2022-12-14T03:12:11.874Z,67.05
2022-12-14T03:13:11.906Z,67.78
2022-12-14T03:14:11.852Z,67.88
2022-12-14T03:15:11.853Z,67.78
2022-12-14T03:16:11.857Z,67.46
2022-12-14T03:17:15.158Z,67.15
2022-12-14T03:18:12.812Z,67.67
2022-12-14T03:19:11.793Z,67.88
2022-12-14T03:20:11.772Z,67.78
2022-12-14T03:21:11.773Z,67.46
2022-12-14T03:22:11.754Z,67.36
2022-12-14T03:23:11.768Z,66.94
2022-12-14T03:24:11.733Z,66.83
2022-12-14T03:25:11.725Z,66.63
2022-12-14T03:26:11.699Z,66.73
2022-12-14T03:27:11.713Z,66.52
2022-12-14T03:28:11.693Z,66.94
2022-12-14T03:29:11.670Z,67.36
2022-12-14T03:30:11.650Z,67.25
2022-12-14T03:31:11.700Z,67.36
2022-12-14T03:32:11.632Z,67.57
2022-12-14T03:33:11.645Z,67.36
2022-12-14T03:34:13.380Z,67.05
2022-12-14T03:35:11.591Z,66.83
2022-12-14T03:36:11.588Z,66.94
2022-12-14T03:37:11.572Z,66.83
2022-12-14T03:38:11.561Z,67.15
2022-12-14T03:39:11.534Z,66.83
2022-12-14T03:40:11.520Z,66.52
2022-12-14T03:41:11.511Z,66.73
2022-12-14T03:42:11.503Z,67.15
2022-12-14T03:43:11.501Z,66.83
2022-12-14T03:44:11.471Z,66.63
2022-12-14T03:45:11.464Z,66.52
2022-12-14T03:46:11.531Z,66.52
2022-12-14T03:47:11.443Z,66.42
2022-12-14T03:48:11.430Z,66.83
2022-12-14T03:49:11.422Z,66.52
2022-12-14T03:50:11.426Z,66.52
2022-12-14T03:51:11.401Z,67.15
2022-12-14T03:52:11.381Z,67.25
2022-12-14T03:53:11.382Z,67.36
2022-12-14T03:54:11.342Z,67.33
2022-12-14T03:55:11.331Z,66.94
2022-12-14T03:56:11.321Z,66.83
2022-12-14T03:57:11.301Z,66.80
2022-12-14T03:58:11.323Z,66.70
2022-12-14T03:59:11.283Z,66.70
2022-12-14T04:00:11.262Z,66.70
2022-12-14T04:01:11.356Z,67.33
2022-12-14T04:02:11.354Z,67.64
2022-12-14T04:03:11.275Z,67.22
2022-12-14T04:04:11.222Z,67.33
2022-12-14T04:05:11.207Z,67.33
2022-12-14T04:06:11.186Z,67.02
2022-12-14T04:07:11.179Z,66.80
2022-12-14T04:08:11.167Z,66.91
2022-12-14T04:09:11.164Z,66.60
2022-12-14T04:11:23.705Z,66.17
2022-12-14T04:12:21.658Z,66.28
2022-12-14T04:13:22.588Z,66.80
2022-12-14T04:14:20.904Z,66.80
2022-12-14T04:15:20.895Z,66.39
2022-12-14T04:16:20.999Z,66.28
2022-12-14T04:17:20.867Z,66.17
2022-12-14T04:18:20.868Z,66.17
2022-12-14T04:19:20.855Z,66.07
2022-12-14T04:20:20.824Z,65.97
2022-12-14T04:21:20.818Z,66.04
2022-12-14T04:22:20.817Z,66.39
2022-12-14T04:23:20.806Z,66.56
2022-12-14T04:24:20.770Z,66.91
2022-12-14T04:25:20.760Z,66.80
2022-12-14T04:26:20.737Z,66.80
2022-12-14T04:27:20.726Z,66.67
2022-12-14T04:28:20.719Z,66.56
2022-12-14T04:29:20.717Z,66.91
2022-12-14T04:30:20.737Z,66.70
2022-12-14T04:31:20.700Z,66.49
2022-12-14T04:32:20.695Z,66.70
2022-12-14T04:33:20.647Z,67.02
2022-12-14T04:34:20.645Z,67.02
2022-12-14T04:35:20.686Z,66.91
2022-12-14T04:36:20.654Z,67.22
2022-12-14T04:37:20.797Z,67.33
2022-12-14T04:38:20.576Z,67.22
2022-12-14T04:39:20.598Z,67.96
2022-12-14T04:40:20.575Z,68.16
2022-12-14T04:41:20.546Z,67.96
2022-12-14T04:42:20.527Z,67.54
2022-12-14T04:43:20.524Z,67.43
2022-12-14T04:44:20.516Z,67.43
2022-12-14T04:45:20.497Z,67.02
2022-12-14T04:46:20.549Z,66.70
2022-12-14T04:47:20.466Z,66.80
2022-12-14T04:48:20.466Z,67.02
2022-12-14T04:49:20.463Z,67.02
2022-12-14T04:50:20.418Z,67.02
2022-12-14T04:51:20.411Z,67.33
2022-12-14T04:52:20.395Z,67.54
2022-12-14T04:53:20.396Z,67.43
2022-12-14T04:54:20.365Z,67.33
2022-12-14T04:55:20.355Z,67.43
2022-12-14T04:56:20.343Z,67.43
2022-12-14T04:57:20.335Z,67.75
2022-12-14T04:58:20.335Z,67.85
2022-12-14T04:59:20.304Z,68.38
2022-12-14T05:00:20.285Z,68.06
2022-12-14T05:01:20.508Z,68.16
2022-12-14T05:02:20.360Z,67.96
2022-12-14T05:03:20.274Z,67.64
2022-12-14T05:04:20.237Z,67.75
2022-12-14T05:05:20.234Z,67.96
2022-12-14T05:06:20.206Z,67.64
2022-12-14T05:07:20.195Z,67.64
2022-12-14T05:08:20.203Z,67.61
2022-12-14T05:09:20.164Z,67.54
2022-12-14T05:10:20.155Z,67.93
2022-12-14T05:11:51.976Z,67.93
2022-12-14T05:12:21.126Z,67.72
2022-12-14T05:13:20.136Z,67.93
2022-12-14T05:14:20.116Z,67.40
2022-12-14T05:15:20.096Z,67.09
2022-12-14T05:16:20.122Z,67.19
2022-12-14T05:17:20.117Z,67.40
2022-12-14T05:18:20.073Z,67.19
2022-12-14T05:19:20.042Z,67.19
2022-12-14T05:20:20.024Z,67.40
2022-12-14T05:21:20.015Z,67.50
2022-12-14T05:22:19.995Z,67.50
2022-12-14T05:23:20.004Z,67.72
2022-12-14T05:24:19.972Z,67.40
2022-12-14T05:25:19.955Z,67.61
2022-12-14T05:26:19.943Z,67.50
2022-12-14T05:27:19.934Z,67.40
2022-12-14T05:28:19.925Z,67.40
2022-12-14T05:29:19.907Z,67.50
2022-12-14T05:30:19.885Z,67.30
2022-12-14T05:31:19.883Z,67.82
2022-12-14T05:32:19.904Z,68.55
2022-12-14T05:33:19.897Z,68.66
2022-12-14T05:34:19.844Z,68.13
2022-12-14T05:35:19.832Z,68.13
2022-12-14T05:36:19.821Z,67.93
2022-12-14T05:37:19.795Z,67.96
2022-12-14T05:38:19.785Z,67.43
2022-12-14T05:39:19.795Z,67.43
2022-12-14T05:40:19.754Z,68.03
2022-12-14T05:41:19.782Z,68.03
2022-12-14T05:42:19.725Z,67.85
2022-12-14T05:43:19.723Z,67.85
2022-12-14T05:44:19.725Z,67.85
2022-12-14T05:45:19.694Z,67.61
2022-12-14T05:46:19.732Z,67.72
2022-12-14T05:47:19.670Z,67.40
2022-12-14T05:48:19.644Z,67.61
2022-12-14T05:49:19.663Z,67.93
2022-12-14T05:50:19.621Z,67.61
2022-12-14T05:51:19.614Z,67.54
2022-12-14T05:52:19.594Z,67.54
2022-12-14T05:53:19.585Z,67.72
2022-12-14T05:54:19.765Z,67.82
2022-12-14T05:55:19.569Z,68.13
2022-12-14T05:56:19.544Z,68.24
2022-12-14T05:57:19.533Z,68.34
2022-12-14T05:58:19.514Z,68.13
2022-12-14T05:59:19.536Z,68.45
2022-12-14T06:00:19.494Z,68.34
2022-12-14T06:01:20.035Z,68.24
2022-12-14T06:02:19.612Z,68.34
2022-12-14T06:03:19.455Z,68.13
2022-12-14T06:04:19.553Z,68.34
2022-12-14T06:05:19.424Z,68.34
2022-12-14T06:06:19.417Z,68.45
2022-12-14T06:07:23.134Z,68.76
2022-12-14T06:08:20.393Z,68.87
2022-12-14T06:09:19.394Z,69.18
2022-12-14T06:10:19.357Z,69.49
2022-12-14T06:11:19.343Z,68.90
2022-12-14T06:12:19.332Z,68.48
2022-12-14T06:13:19.325Z,68.16
2022-12-14T06:14:19.323Z,67.93
2022-12-14T06:15:19.314Z,67.93
2022-12-14T06:16:19.339Z,67.72
2022-12-14T06:17:19.273Z,68.06
2022-12-14T06:18:19.251Z,67.43
2022-12-14T06:19:19.270Z,67.96
2022-12-14T06:20:19.224Z,67.85
2022-12-14T06:21:19.213Z,67.61
2022-12-14T06:22:19.206Z,67.72
2022-12-14T06:23:19.185Z,68.03
2022-12-14T06:24:19.191Z,67.93
2022-12-14T06:25:19.153Z,67.82
2022-12-14T06:26:19.143Z,68.03
2022-12-14T06:27:19.138Z,67.50
2022-12-14T06:28:19.118Z,67.30
2022-12-14T06:29:19.132Z,67.72
2022-12-14T06:30:19.087Z,68.03
2022-12-14T06:31:19.205Z,67.72
2022-12-14T06:32:19.065Z,67.19
2022-12-14T06:33:19.552Z,67.30
2022-12-14T06:34:21.301Z,67.19
2022-12-14T06:35:20.024Z,67.40
2022-12-14T06:36:19.013Z,67.50
2022-12-14T06:37:18.993Z,67.30
2022-12-14T06:38:18.993Z,67.40
2022-12-14T06:39:18.971Z,67.50
2022-12-14T06:40:18.952Z,67.19
2022-12-14T06:41:18.942Z,67.40
2022-12-14T06:42:18.923Z,67.40
2022-12-14T06:43:18.933Z,67.40
2022-12-14T06:44:18.909Z,67.09
2022-12-14T06:45:18.896Z,66.88
2022-12-14T06:46:18.981Z,67.19
2022-12-14T06:47:18.864Z,67.40
2022-12-14T06:48:18.864Z,67.50
2022-12-14T06:49:18.845Z,67.72
2022-12-14T06:50:18.823Z,67.30
2022-12-14T06:51:18.815Z,66.77
2022-12-14T06:52:21.961Z,66.56
2022-12-14T06:53:19.795Z,66.77
2022-12-14T06:54:18.773Z,66.88
2022-12-14T06:55:18.753Z,67.50
2022-12-14T06:56:18.752Z,67.40
2022-12-14T06:57:18.731Z,67.40
2022-12-14T06:58:18.733Z,67.19
2022-12-14T06:59:18.714Z,67.09
2022-12-14T07:00:18.703Z,67.09
2022-12-14T07:01:18.780Z,67.19
2022-12-14T07:02:18.857Z,67.30
2022-12-14T07:03:18.720Z,67.40
2022-12-14T07:04:18.647Z,67.30
2022-12-14T07:05:18.633Z,67.61
2022-12-14T07:06:18.627Z,67.72
2022-12-14T07:07:18.603Z,67.93
2022-12-14T07:08:18.613Z,67.72
2022-12-14T07:09:18.573Z,67.50
2022-12-14T07:10:18.562Z,67.40
2022-12-14T07:11:18.566Z,67.61
2022-12-14T07:12:18.552Z,68.13
2022-12-14T07:13:18.515Z,68.13
2022-12-14T07:14:18.504Z,67.93
2022-12-14T07:15:18.497Z,67.72
2022-12-14T07:16:18.503Z,67.19
2022-12-14T07:17:18.473Z,67.61
2022-12-14T07:18:18.452Z,67.72
2022-12-14T07:19:18.450Z,67.43
2022-12-14T07:20:18.435Z,67.19
2022-12-14T07:21:18.409Z,67.19
2022-12-14T07:22:18.421Z,66.99
2022-12-14T07:23:20.305Z,66.67
2022-12-14T07:24:18.371Z,66.25
2022-12-14T07:25:18.357Z,65.83
2022-12-14T07:26:18.343Z,66.46
2022-12-14T07:27:18.352Z,66.99
2022-12-14T07:28:18.323Z,66.88
2022-12-14T07:29:18.307Z,66.99
2022-12-14T07:30:18.290Z,66.99
2022-12-14T07:31:18.334Z,66.77
2022-12-14T07:32:18.263Z,66.46
2022-12-14T07:33:18.260Z,66.88
2022-12-14T07:34:18.232Z,66.88
2022-12-14T07:35:18.220Z,66.88
2022-12-14T07:36:18.210Z,66.99
2022-12-14T07:37:18.192Z,66.88
2022-12-14T07:38:18.207Z,66.88
2022-12-14T07:39:18.164Z,66.56
2022-12-14T07:40:18.153Z,66.25
2022-12-14T07:41:22.289Z,66.36
2022-12-14T07:42:18.134Z,66.56
2022-12-14T07:43:18.126Z,66.46
2022-12-14T07:44:18.103Z,66.88
2022-12-14T07:45:18.091Z,66.25
2022-12-14T07:46:18.125Z,66.67
2022-12-14T07:47:18.062Z,66.46
2022-12-14T07:48:18.134Z,66.36
2022-12-14T07:49:18.032Z,66.36
2022-12-14T07:50:18.023Z,66.14
2022-12-14T07:51:18.012Z,66.25
2022-12-14T07:52:17.992Z,66.53
2022-12-14T07:53:17.992Z,66.36
2022-12-14T07:54:17.974Z,66.33
2022-12-14T07:55:17.952Z,65.94
2022-12-14T07:56:17.941Z,65.80
2022-12-14T07:57:17.922Z,66.43
2022-12-14T07:58:17.932Z,66.96
2022-12-14T07:59:17.903Z,66.85
2022-12-14T08:00:17.882Z,66.53
2022-12-14T08:01:17.922Z,66.53
2022-12-14T08:02:17.947Z,66.22
2022-12-14T08:03:17.861Z,66.11
2022-12-14T08:04:17.857Z,66.11
2022-12-14T08:05:17.811Z,66.22
2022-12-14T08:06:17.810Z,66.22
2022-12-14T08:07:17.791Z,66.22
2022-12-14T08:08:17.801Z,66.64
2022-12-14T08:09:17.762Z,66.22
2022-12-14T08:10:17.753Z,66.11
2022-12-14T08:11:17.740Z,66.22
2022-12-14T08:12:17.731Z,66.64
2022-12-14T08:13:17.731Z,67.27
2022-12-14T08:14:17.703Z,66.96
2022-12-14T08:15:17.682Z,66.74
2022-12-14T08:16:17.725Z,67.09
2022-12-14T08:17:17.662Z,66.53
2022-12-14T08:18:17.669Z,66.11
2022-12-14T08:19:17.631Z,66.22
2022-12-14T08:20:17.623Z,66.33
2022-12-14T08:21:17.610Z,66.53
2022-12-14T08:22:17.601Z,66.43
2022-12-14T08:23:17.603Z,66.43
2022-12-14T08:24:17.571Z,66.64
2022-12-14T08:25:17.562Z,66.22
2022-12-14T08:26:17.543Z,66.01
2022-12-14T08:27:17.525Z,66.22
2022-12-14T08:28:17.533Z,66.22
2022-12-14T08:29:17.508Z,66.53
2022-12-14T08:30:17.492Z,66.33
2022-12-14T08:31:17.530Z,65.91
2022-12-14T08:32:17.462Z,66.11
2022-12-14T08:33:17.462Z,66.74
2022-12-14T08:34:17.432Z,66.33
2022-12-14T08:35:17.421Z,66.74
2022-12-14T08:36:17.413Z,66.96
2022-12-14T08:37:17.398Z,66.53
2022-12-14T08:38:17.401Z,66.33
2022-12-14T08:39:17.361Z,66.22
2022-12-14T08:40:17.354Z,66.22
2022-12-14T08:41:17.342Z,66.74
2022-12-14T08:42:17.330Z,67.16
2022-12-14T08:43:21.747Z,67.16
2022-12-14T08:44:18.359Z,66.33
2022-12-14T08:45:17.283Z,66.40
2022-12-14T08:46:17.324Z,66.30
2022-12-14T08:47:17.260Z,66.30
2022-12-14T08:48:17.734Z,66.19
2022-12-14T08:49:17.231Z,66.82
2022-12-14T08:50:17.223Z,66.93
2022-12-14T08:51:17.373Z,66.71
2022-12-14T08:52:17.200Z,66.71
2022-12-14T08:53:17.202Z,67.03
2022-12-14T08:54:17.170Z,67.13
2022-12-14T08:55:18.182Z,66.30
2022-12-14T08:56:17.145Z,65.98
2022-12-14T08:57:17.131Z,65.98
2022-12-14T08:58:17.140Z,65.88
2022-12-14T08:59:43.887Z,65.98
2022-12-14T09:00:18.092Z,65.98
2022-12-14T09:01:17.170Z,66.08
2022-12-14T09:02:17.166Z,66.30
2022-12-14T09:03:17.118Z,66.08
2022-12-14T09:04:17.041Z,65.98
2022-12-14T09:05:17.024Z,65.74
2022-12-14T09:06:17.019Z,66.06
2022-12-14T09:07:17.000Z,66.06
2022-12-14T09:08:17.001Z,66.78
2022-12-14T09:09:17.076Z,66.78
2022-12-14T09:10:16.975Z,67.00
2022-12-14T09:11:16.950Z,66.47
2022-12-14T09:12:16.932Z,66.68
2022-12-14T09:13:16.939Z,66.89
2022-12-14T09:14:16.911Z,66.78
2022-12-14T09:15:16.890Z,66.68
2022-12-14T09:16:16.944Z,66.47
2022-12-14T09:17:16.868Z,66.68
2022-12-14T09:18:16.881Z,66.27
2022-12-14T09:19:16.842Z,66.16
2022-12-14T09:20:16.843Z,66.16
2022-12-14T09:21:16.819Z,66.06
2022-12-14T09:22:16.862Z,66.06
2022-12-14T09:23:16.787Z,65.53
2022-12-14T09:24:16.800Z,66.06
2022-12-14T09:25:16.769Z,65.84
2022-12-14T09:26:16.764Z,65.33
2022-12-14T09:27:16.731Z,65.33
2022-12-14T09:28:16.741Z,65.43
2022-12-14T09:29:16.711Z,65.64
2022-12-14T09:30:20.418Z,65.33
2022-12-14T09:31:17.706Z,65.64
2022-12-14T09:32:16.671Z,65.64
2022-12-14T09:33:16.672Z,65.43
2022-12-14T09:34:16.650Z,66.37
2022-12-14T09:35:16.630Z,66.47
2022-12-14T09:36:16.620Z,66.06
2022-12-14T09:37:16.618Z,65.22
2022-12-14T09:38:16.592Z,66.06
2022-12-14T09:39:16.591Z,66.16
2022-12-14T09:40:16.577Z,65.84
2022-12-14T09:41:16.549Z,65.74
2022-12-14T09:42:16.540Z,65.50
2022-12-14T09:43:16.550Z,65.19
2022-12-14T09:44:18.708Z,65.40
2022-12-14T09:45:16.490Z,65.19
2022-12-14T09:46:16.535Z,64.67
2022-12-14T09:47:16.484Z,64.46
2022-12-14T09:48:16.459Z,64.56
2022-12-14T09:49:16.465Z,64.36
2022-12-14T09:50:16.441Z,64.56
2022-12-14T09:51:16.440Z,63.90
2022-12-14T09:52:16.415Z,63.80
2022-12-14T09:53:16.398Z,64.12
2022-12-14T09:54:16.400Z,64.64
2022-12-14T09:55:16.360Z,64.64
2022-12-14T09:56:16.360Z,64.84
2022-12-14T09:57:16.345Z,64.64
2022-12-14T09:58:16.330Z,64.74
2022-12-14T09:59:16.331Z,64.71
2022-12-14T10:00:16.311Z,64.40
2022-12-14T10:01:16.408Z,64.22
2022-12-14T10:02:32.501Z,64.22
2022-12-14T10:03:17.423Z,64.12
2022-12-14T10:04:16.374Z,64.22
2022-12-14T10:05:16.230Z,64.53
2022-12-14T10:06:16.241Z,64.74
2022-12-14T10:07:16.210Z,64.22
2022-12-14T10:08:16.202Z,64.32
2022-12-14T10:09:16.259Z,64.53
2022-12-14T10:10:16.171Z,65.19
2022-12-14T10:11:23.183Z,64.53
2022-12-14T10:12:16.143Z,64.64
2022-12-14T10:13:18.872Z,64.43
2022-12-14T10:14:16.133Z,64.53
2022-12-14T10:15:16.108Z,64.43
2022-12-14T10:16:16.226Z,64.53
2022-12-14T10:17:16.163Z,64.56
2022-12-14T10:18:41.299Z,64.36
2022-12-14T10:19:17.072Z,65.06
2022-12-14T10:20:16.053Z,64.95
2022-12-14T10:21:16.027Z,65.26
2022-12-14T10:22:16.033Z,64.95
2022-12-14T10:23:22.457Z,64.74
2022-12-14T10:24:17.008Z,64.53
2022-12-14T10:25:15.976Z,63.88
2022-12-14T10:26:15.961Z,64.09
2022-12-14T10:27:15.953Z,64.19
2022-12-14T10:28:15.960Z,64.71
2022-12-14T10:29:15.943Z,65.44
2022-12-14T10:30:15.914Z,64.71
2022-12-14T10:31:15.931Z,64.64
2022-12-14T10:32:15.885Z,65.16
2022-12-14T10:33:15.870Z,64.71
2022-12-14T10:34:15.880Z,64.61
2022-12-14T10:35:15.843Z,64.40
2022-12-14T10:36:15.833Z,64.40
2022-12-14T10:37:15.815Z,64.19
2022-12-14T10:38:15.804Z,64.61
2022-12-14T10:39:15.816Z,64.82
2022-12-14T10:40:24.734Z,65.23
2022-12-14T10:41:16.763Z,65.75
2022-12-14T10:42:15.754Z,65.03
2022-12-14T10:43:15.732Z,65.23
2022-12-14T10:44:15.745Z,64.95
2022-12-14T10:45:39.588Z,65.26
2022-12-14T10:46:16.792Z,65.78
2022-12-14T10:47:15.688Z,65.58
2022-12-14T10:48:15.670Z,65.68
2022-12-14T10:49:15.694Z,65.58
2022-12-14T10:50:15.733Z,66.00
2022-12-14T10:51:15.624Z,66.41
2022-12-14T10:52:15.641Z,65.37
2022-12-14T10:53:15.607Z,66.10
2022-12-14T10:54:15.615Z,65.68
2022-12-14T10:55:15.574Z,66.31
2022-12-14T10:56:15.668Z,66.00
2022-12-14T10:57:15.550Z,66.00
2022-12-14T10:58:15.540Z,65.68
2022-12-14T10:59:15.538Z,66.17
2022-12-14T11:00:22.619Z,66.49
2022-12-14T11:01:16.636Z,65.65
2022-12-14T11:02:15.645Z,65.44
2022-12-14T11:03:15.594Z,65.23
2022-12-14T11:04:15.479Z,65.55
2022-12-14T11:05:15.446Z,65.97
2022-12-14T11:06:15.427Z,65.34
2022-12-14T11:07:15.434Z,65.31
2022-12-14T11:08:15.404Z,65.62
2022-12-14T11:09:15.405Z,65.62
2022-12-14T11:10:15.406Z,65.41
2022-12-14T11:11:18.984Z,65.31
2022-12-14T11:12:15.377Z,65.00
2022-12-14T11:13:15.363Z,64.79
2022-12-14T11:14:15.336Z,65.10
2022-12-14T11:15:15.317Z,65.62
2022-12-14T11:16:15.322Z,66.04
2022-12-14T11:17:15.423Z,65.94
2022-12-14T11:18:15.356Z,65.62
2022-12-14T11:19:15.286Z,65.62
2022-12-14T11:20:15.529Z,65.62
2022-12-14T11:21:15.245Z,65.73
2022-12-14T11:22:22.050Z,66.35
2022-12-14T11:23:16.224Z,65.83
2022-12-14T11:24:15.220Z,66.46
2022-12-14T11:25:15.175Z,66.25
2022-12-14T11:26:15.158Z,66.14
2022-12-14T11:27:15.156Z,66.11
2022-12-14T11:28:15.169Z,66.22
2022-12-14T11:29:15.125Z,66.01
2022-12-14T11:30:15.118Z,65.48
2022-12-14T11:31:15.136Z,65.59
2022-12-14T11:32:15.086Z,66.32
2022-12-14T11:33:15.087Z,66.11
2022-12-14T11:34:21.759Z,66.32
2022-12-14T11:35:16.055Z,67.05
2022-12-14T11:36:15.026Z,66.74
2022-12-14T11:37:15.019Z,67.05
2022-12-14T11:38:15.024Z,66.63
2022-12-14T11:39:15.006Z,66.63
2022-12-14T11:40:14.975Z,66.53
2022-12-14T11:41:14.966Z,66.42
2022-12-14T11:42:14.957Z,66.85
2022-12-14T11:43:14.978Z,66.85
2022-12-14T11:44:14.926Z,66.74
2022-12-14T11:45:14.918Z,66.53
2022-12-14T11:46:14.944Z,66.85
2022-12-14T11:47:14.888Z,66.95
2022-12-14T11:48:14.894Z,67.26
2022-12-14T11:49:14.856Z,66.98
2022-12-14T11:50:14.844Z,68.13
2022-12-14T11:51:14.836Z,68.44
2022-12-14T11:52:14.838Z,68.23
2022-12-14T11:53:14.827Z,68.54
2022-12-14T11:54:14.788Z,68.33
2022-12-14T11:55:14.797Z,68.44
2022-12-14T11:56:14.768Z,68.65
2022-12-14T11:57:14.760Z,68.62
2022-12-14T11:58:14.756Z,68.41
2022-12-14T11:59:14.734Z,68.72
2022-12-14T12:00:14.742Z,68.51
2022-12-14T12:01:14.780Z,69.03
2022-12-14T12:02:14.726Z,68.41
2022-12-14T12:03:14.715Z,68.13
2022-12-14T12:04:14.696Z,68.96
2022-12-14T12:05:14.656Z,68.75
2022-12-14T12:06:14.626Z,69.17
2022-12-14T12:07:14.628Z,69.07
2022-12-14T12:08:14.627Z,69.17
2022-12-14T12:09:14.602Z,69.13
2022-12-14T12:10:14.577Z,69.35
2022-12-14T12:11:14.566Z,69.35
2022-12-14T12:12:14.550Z,69.35
2022-12-14T12:13:14.565Z,68.62
2022-12-14T12:14:14.524Z,68.72
2022-12-14T12:15:14.532Z,68.72
2022-12-14T12:16:14.534Z,68.62
2022-12-14T12:17:14.489Z,68.93
2022-12-14T12:18:14.488Z,68.75
2022-12-14T12:19:14.467Z,68.44
2022-12-14T12:20:14.459Z,68.75
2022-12-14T12:21:14.428Z,69.38
2022-12-14T12:22:14.418Z,69.17
2022-12-14T12:23:14.431Z,69.27
2022-12-14T12:24:14.401Z,69.17
2022-12-14T12:25:26.737Z,69.38
2022-12-14T12:26:15.367Z,69.79
2022-12-14T12:27:14.357Z,70.00
2022-12-14T12:28:14.361Z,70.04
2022-12-14T12:29:14.327Z,70.04
2022-12-14T12:30:14.319Z,70.35
2022-12-14T12:31:14.355Z,70.98
2022-12-14T12:32:14.290Z,71.29
2022-12-14T12:33:14.291Z,71.29
2022-12-14T12:34:14.257Z,71.29
2022-12-14T12:35:14.252Z,71.19
2022-12-14T12:36:16.143Z,70.66
2022-12-14T12:37:29.479Z,70.76
2022-12-14T12:38:15.229Z,71.08
2022-12-14T12:39:14.200Z,71.29
2022-12-14T12:40:14.186Z,71.29
2022-12-14T12:41:14.169Z,71.60
2022-12-14T12:42:14.156Z,71.81
2022-12-14T12:43:14.167Z,71.91
2022-12-14T12:44:14.118Z,71.91
2022-12-14T12:45:14.116Z,72.05
2022-12-14T12:46:14.161Z,72.68
2022-12-14T12:47:41.481Z,72.58
2022-12-14T12:48:15.087Z,72.78
2022-12-14T12:49:14.067Z,72.58
2022-12-14T12:50:14.051Z,72.36
2022-12-14T12:51:14.038Z,72.26
2022-12-14T12:52:14.018Z,71.95
2022-12-14T12:53:14.028Z,72.05